Accueil
METAR-TAF:

METAR-TAF

Aéroports :

Aéroport international Mehrabad

Téhéran, Iran

latitude: 35-41N, longitude: 051-21E, altitude: 1204 m

Observation

Le bulletin a été fait il y a 36 minutes, à 03:30 UTC
Vent 4 kt de ouest/nord-ouest
Température 28°C
Humidité 25%
Pression 1011 hPa
Visibilité 10 km ou plus
pas de nuages en-dessous de 1500 mètres et pas de cumulonimbus.

METAR: OIII 230330Z 30004KT CAVOK 28/06 Q1010 A2984

Heure: 08:36 (04:06 UTC)

Prévision

Le bulletin a été fait il y a 5 heures et 6 minutes, à 23:00 UTC
Prévision valable du 23 à 00 UTC au 24 à 06 UTC
Vent 8 kt de sud-est
Visibilité 10 km ou plus
pas de nuages en-dessous de 1500 mètres et pas de cumulonimbus.
Temporairement
du 23 à 09 UTC au 23 à 15 UTC
Vent 16 kt de sud

TAF: OIII 222300Z 2300/2406 14004MPS CAVOK TEMPO 2309/2315 17008MPS

Observations et prévisions météorologiques de plus de 4000 aéroports (messages METAR et TAF).

Les stations disponibles sont représentées par des disques jaunes et rouges sur la carte.

Passer la souris dessus pour voir le nom de la station.

Cliquer dessus pour voir les observations et prévisions météorologiques.

Pour changer de carte: cliquez sur les boutons verts avec une croix noire pour zoomer, sur le bouton vert avec un tiret pour effectuer un zoom arrière, ou sur les flèches vertes pour les cartes adjacentes.


METAR-TAF: